createdAt,value
2023-03-08T00:00:14.210Z,1.30
2023-03-08T00:02:38.366Z,1.20
2023-03-08T00:05:01.956Z,1.20
2023-03-08T00:07:25.765Z,1.20
2023-03-08T00:09:49.315Z,1.10
2023-03-08T00:12:12.961Z,1.10
2023-03-08T00:14:37.323Z,1.10
2023-03-08T00:17:02.566Z,1.00
2023-03-08T00:19:26.143Z,1.00
2023-03-08T00:21:49.745Z,1.00
2023-03-08T00:24:16.798Z,1.00
2023-03-08T00:26:40.433Z,1.00
2023-03-08T00:29:04.188Z,0.90
2023-03-08T00:31:27.978Z,0.90
2023-03-08T00:33:55.702Z,0.90
2023-03-08T00:36:21.057Z,0.80
2023-03-08T00:38:45.280Z,0.80
2023-03-08T00:41:11.474Z,0.80
2023-03-08T00:43:35.806Z,0.80
2023-03-08T00:46:02.609Z,0.80
2023-03-08T00:48:26.648Z,0.70
2023-03-08T00:50:51.697Z,0.70
2023-03-08T00:53:15.620Z,0.70
2023-03-08T00:55:39.451Z,0.70
2023-03-08T00:58:03.161Z,0.70
2023-03-08T01:00:27.231Z,0.60
2023-03-08T01:02:51.434Z,0.60
2023-03-08T01:05:15.260Z,0.60
2023-03-08T01:07:41.529Z,0.60
2023-03-08T01:10:05.603Z,0.60
2023-03-08T01:12:29.127Z,0.60
2023-03-08T01:14:52.795Z,0.60
2023-03-08T01:17:16.292Z,0.60
2023-03-08T01:19:39.845Z,0.50
2023-03-08T01:22:03.411Z,0.50
2023-03-08T01:24:28.392Z,0.50
2023-03-08T01:26:55.822Z,0.40
2023-03-08T01:29:19.397Z,0.40
2023-03-08T01:31:42.927Z,0.40
2023-03-08T01:34:06.511Z,0.40
2023-03-08T01:36:30.459Z,0.40
2023-03-08T01:38:54.208Z,0.40
2023-03-08T01:41:22.285Z,0.30
2023-03-08T01:43:47.412Z,0.30
2023-03-08T01:46:25.172Z,0.30
2023-03-08T01:48:57.948Z,0.30
2023-03-08T01:51:29.960Z,0.30
2023-03-08T01:53:55.311Z,0.30
2023-03-08T01:56:21.196Z,0.30
2023-03-08T01:58:49.888Z,0.30
2023-03-08T02:01:13.584Z,0.30
2023-03-08T02:03:37.386Z,0.20
2023-03-08T02:06:01.080Z,0.30
2023-03-08T02:08:25.496Z,0.20
2023-03-08T02:10:50.519Z,0.20
2023-03-08T02:13:15.594Z,0.20
2023-03-08T02:15:40.834Z,0.20
2023-03-08T02:18:04.537Z,0.30
2023-03-08T02:20:32.864Z,0.20
2023-03-08T02:23:13.131Z,0.20
2023-03-08T02:25:38.124Z,0.20
2023-03-08T02:28:02.592Z,0.20
2023-03-08T02:30:31.708Z,0.20
2023-03-08T02:32:55.215Z,0.20
2023-03-08T02:35:19.363Z,0.20
2023-03-08T02:37:42.973Z,0.20
2023-03-08T02:40:11.347Z,0.20
2023-03-08T02:42:35.276Z,0.20
2023-03-08T02:44:58.873Z,0.20
2023-03-08T02:47:22.470Z,0.10
2023-03-08T02:49:46.205Z,0.10
2023-03-08T02:52:09.860Z,0.10
2023-03-08T02:54:33.404Z,0.10
2023-03-08T02:56:59.369Z,0.10
2023-03-08T02:59:24.024Z,0.10
2023-03-08T03:01:48.993Z,0.10
2023-03-08T03:04:12.553Z,0.20
2023-03-08T03:06:36.126Z,0.20
2023-03-08T03:08:59.734Z,0.30
2023-03-08T03:11:24.588Z,0.30
2023-03-08T03:13:56.091Z,0.30
2023-03-08T03:16:21.466Z,0.40
2023-03-08T03:18:45.142Z,0.40
2023-03-08T03:21:11.875Z,0.50
2023-03-08T03:23:35.415Z,0.50
2023-03-08T03:26:05.761Z,0.50
2023-03-08T03:28:30.040Z,0.50
2023-03-08T03:30:57.060Z,0.50
2023-03-08T03:33:20.747Z,0.60
2023-03-08T03:35:44.760Z,0.60
2023-03-08T03:38:08.405Z,0.60
2023-03-08T03:40:32.760Z,0.60
2023-03-08T03:42:58.890Z,0.70
2023-03-08T03:45:22.509Z,0.70
2023-03-08T03:47:48.265Z,0.70
2023-03-08T03:50:13.436Z,0.70
2023-03-08T03:52:49.914Z,0.80
2023-03-08T03:55:13.915Z,0.80
2023-03-08T03:57:37.536Z,0.80
2023-03-08T04:00:01.226Z,0.80
2023-03-08T04:02:25.138Z,0.90
2023-03-08T04:04:55.189Z,0.90
2023-03-08T04:07:22.834Z,0.90
2023-03-08T04:09:52.968Z,0.90
2023-03-08T04:12:16.634Z,0.90
2023-03-08T04:14:41.312Z,0.90
2023-03-08T04:17:07.638Z,0.90
2023-03-08T04:19:37.924Z,1.00
2023-03-08T04:22:04.405Z,1.00
2023-03-08T04:24:34.940Z,1.10
2023-03-08T04:27:02.534Z,1.10
2023-03-08T04:29:26.846Z,1.10
2023-03-08T04:31:50.433Z,1.10
2023-03-08T04:34:16.344Z,1.10
2023-03-08T04:36:43.529Z,1.10
2023-03-08T04:39:08.499Z,1.00
2023-03-08T04:41:32.608Z,1.00
2023-03-08T04:44:04.120Z,0.90
2023-03-08T04:46:33.156Z,1.00
2023-03-08T04:48:57.279Z,1.00
2023-03-08T04:51:26.731Z,0.90
2023-03-08T04:53:52.835Z,0.90
2023-03-08T04:56:19.151Z,0.90
2023-03-08T04:58:44.658Z,0.80
2023-03-08T05:01:14.208Z,0.80
2023-03-08T05:03:39.167Z,0.80
2023-03-08T05:06:02.703Z,0.80
2023-03-08T05:08:26.363Z,0.80
2023-03-08T05:10:50.902Z,0.80
2023-03-08T05:13:15.922Z,0.80
2023-03-08T05:15:40.258Z,0.80
2023-03-08T05:18:03.875Z,0.80
2023-03-08T05:20:27.880Z,0.80
2023-03-08T05:22:58.984Z,0.80
2023-03-08T05:25:31.593Z,0.70
2023-03-08T05:27:56.161Z,0.70
2023-03-08T05:30:22.063Z,0.70
2023-03-08T05:32:47.314Z,0.70
2023-03-08T05:35:11.265Z,0.70
2023-03-08T05:37:35.428Z,0.70
2023-03-08T05:40:00.534Z,0.60
2023-03-08T05:42:24.163Z,0.60
2023-03-08T05:44:47.916Z,0.60
2023-03-08T05:47:17.498Z,0.60
2023-03-08T05:49:41.466Z,0.60
2023-03-08T05:52:06.653Z,0.60
2023-03-08T05:54:31.662Z,0.60
2023-03-08T05:56:59.555Z,0.60
2023-03-08T05:59:23.704Z,0.60
2023-03-08T06:01:47.813Z,0.60
2023-03-08T06:04:31.489Z,0.60
2023-03-08T06:06:55.686Z,0.50
2023-03-08T06:09:23.780Z,0.50
2023-03-08T06:11:48.179Z,0.50
2023-03-08T06:14:13.231Z,0.50
2023-03-08T06:16:37.683Z,0.50
2023-03-08T06:19:03.365Z,0.50
2023-03-08T06:21:30.021Z,0.50
2023-03-08T06:23:57.396Z,0.50
2023-03-08T06:26:21.779Z,0.50
2023-03-08T06:28:45.722Z,0.40
2023-03-08T06:31:13.256Z,0.50
2023-03-08T06:33:37.224Z,0.50
2023-03-08T06:36:04.148Z,0.50
2023-03-08T06:38:31.784Z,0.50
2023-03-08T06:40:57.111Z,0.60
2023-03-08T06:43:21.982Z,0.60
2023-03-08T06:45:45.624Z,0.70
2023-03-08T06:48:09.551Z,0.70
2023-03-08T06:50:34.072Z,0.80
2023-03-08T06:52:57.639Z,1.10
2023-03-08T06:55:38.165Z,1.50
2023-03-08T06:58:01.786Z,1.70
2023-03-08T07:00:25.687Z,2.10
2023-03-08T07:02:49.912Z,2.30
2023-03-08T07:05:13.417Z,2.60
2023-03-08T07:07:38.665Z,2.50
2023-03-08T07:10:02.328Z,2.40
2023-03-08T07:12:27.352Z,2.40
2023-03-08T07:14:53.326Z,2.40
2023-03-08T07:17:16.890Z,2.50
2023-03-08T07:19:40.608Z,2.50
2023-03-08T07:22:04.164Z,2.50
2023-03-08T07:24:27.757Z,2.50
2023-03-08T07:26:52.229Z,2.40
2023-03-08T07:29:17.650Z,2.40
2023-03-08T07:31:41.344Z,2.40
2023-03-08T07:34:04.980Z,2.40
2023-03-08T07:36:28.555Z,2.50
2023-03-08T07:38:52.133Z,2.50
2023-03-08T07:41:15.763Z,2.50
2023-03-08T07:43:39.384Z,2.70
2023-03-08T07:46:18.081Z,2.60
2023-03-08T07:48:41.726Z,2.80
2023-03-08T07:51:08.834Z,2.70
2023-03-08T07:53:32.911Z,2.80
2023-03-08T07:55:58.834Z,2.70
2023-03-08T07:58:22.446Z,2.90
2023-03-08T08:00:46.251Z,2.90
2023-03-08T08:03:11.250Z,2.80
2023-03-08T08:05:37.172Z,2.80
2023-03-08T08:08:01.003Z,3.00
2023-03-08T08:10:24.525Z,3.10
2023-03-08T08:12:48.129Z,3.10
2023-03-08T08:15:12.967Z,3.10
2023-03-08T08:17:36.550Z,3.20
2023-03-08T08:20:01.446Z,3.20
2023-03-08T08:22:25.191Z,3.20
2023-03-08T08:24:48.763Z,3.30
2023-03-08T08:27:14.823Z,3.40
2023-03-08T08:29:39.336Z,3.50
2023-03-08T08:32:05.210Z,3.50
2023-03-08T08:34:28.755Z,3.80
2023-03-08T08:36:53.745Z,4.20
2023-03-08T08:39:17.317Z,4.50
2023-03-08T08:41:40.950Z,4.80
2023-03-08T08:44:04.940Z,5.40
2023-03-08T08:46:29.620Z,5.70
2023-03-08T08:48:53.133Z,5.90
2023-03-08T08:51:16.775Z,6.00
2023-03-08T08:53:41.835Z,5.60
2023-03-08T08:56:26.102Z,5.50
2023-03-08T08:58:52.471Z,5.70
2023-03-08T09:01:18.108Z,5.80
2023-03-08T09:03:41.748Z,5.80
2023-03-08T09:06:06.017Z,5.70
2023-03-08T09:08:29.890Z,6.00
2023-03-08T09:10:54.835Z,6.30
2023-03-08T09:13:18.471Z,6.50
2023-03-08T09:15:42.040Z,6.70
2023-03-08T09:18:05.817Z,6.70
2023-03-08T09:20:29.524Z,6.90
2023-03-08T09:22:53.211Z,6.90
2023-03-08T09:25:19.504Z,6.90
2023-03-08T09:27:44.578Z,6.80
2023-03-08T09:30:12.695Z,6.70
2023-03-08T09:32:37.009Z,6.70
2023-03-08T09:35:00.625Z,6.60
2023-03-08T09:37:24.226Z,6.50
2023-03-08T09:39:51.521Z,6.60
2023-03-08T09:42:24.139Z,6.50
2023-03-08T09:45:13.395Z,6.40
2023-03-08T09:47:46.582Z,6.10
2023-03-08T09:50:33.870Z,6.10
2023-03-08T09:53:01.486Z,6.30
2023-03-08T09:55:30.516Z,6.40
2023-03-08T09:57:57.438Z,6.30
2023-03-08T10:00:28.363Z,6.40
2023-03-08T10:03:07.970Z,5.90
2023-03-08T10:05:41.158Z,6.10
2023-03-08T10:08:14.262Z,6.10
2023-03-08T10:10:50.048Z,6.10
2023-03-08T10:13:32.090Z,6.10
2023-03-08T10:16:07.187Z,6.10
2023-03-08T10:18:37.195Z,6.30
2023-03-08T10:21:03.024Z,6.60
2023-03-08T10:23:30.096Z,7.10
2023-03-08T10:25:53.934Z,7.60
2023-03-08T10:28:21.682Z,7.70
2023-03-08T10:30:49.094Z,7.50
2023-03-08T10:33:19.425Z,7.80
2023-03-08T10:35:58.320Z,7.90
2023-03-08T10:38:21.904Z,8.10
2023-03-08T10:40:45.579Z,8.30
2023-03-08T10:43:18.322Z,8.50
2023-03-08T10:45:41.988Z,8.60
2023-03-08T10:48:07.491Z,8.60
2023-03-08T10:50:36.601Z,8.20
2023-03-08T10:53:12.136Z,8.30
2023-03-08T10:55:44.907Z,8.30
2023-03-08T10:58:33.590Z,8.30
2023-03-08T11:00:59.789Z,8.40
2023-03-08T11:03:25.535Z,8.30
2023-03-08T11:05:59.986Z,7.50
2023-03-08T11:08:28.168Z,7.80
2023-03-08T11:11:12.360Z,7.90
2023-03-08T11:13:39.200Z,8.00
2023-03-08T11:16:27.299Z,8.00
2023-03-08T11:19:04.247Z,8.10
2023-03-08T11:21:41.860Z,8.20
2023-03-08T11:24:23.514Z,8.00
2023-03-08T11:27:03.641Z,8.10
2023-03-08T11:29:42.409Z,8.30
2023-03-08T11:32:22.194Z,8.10
2023-03-08T11:35:11.256Z,8.00
2023-03-08T11:37:44.190Z,8.10
2023-03-08T11:40:22.732Z,8.00
2023-03-08T11:42:56.507Z,7.80
2023-03-08T11:45:27.656Z,7.70
2023-03-08T11:48:25.353Z,7.60
2023-03-08T11:50:54.891Z,7.50
2023-03-08T11:53:35.324Z,7.60
2023-03-08T11:56:38.044Z,7.60
2023-03-08T11:59:08.283Z,7.60
2023-03-08T12:01:39.942Z,7.50
2023-03-08T12:04:11.301Z,7.70
2023-03-08T12:06:40.853Z,7.60
2023-03-08T12:09:14.313Z,7.50
2023-03-08T12:11:43.358Z,7.60
2023-03-08T12:14:17.690Z,7.60
2023-03-08T12:16:49.668Z,7.60
2023-03-08T12:19:25.808Z,7.50
2023-03-08T12:21:58.777Z,7.40
2023-03-08T12:24:39.720Z,7.10
2023-03-08T12:27:07.575Z,7.10
2023-03-08T12:29:36.431Z,7.00
2023-03-08T12:32:01.988Z,6.90
2023-03-08T12:34:31.290Z,6.90
2023-03-08T12:36:55.471Z,6.90
2023-03-08T12:39:32.588Z,7.20
2023-03-08T12:42:15.990Z,7.20
2023-03-08T12:44:40.660Z,7.20
2023-03-08T12:47:20.387Z,7.30
2023-03-08T12:49:47.411Z,7.40
2023-03-08T12:52:30.569Z,7.50
2023-03-08T12:55:05.467Z,7.50
2023-03-08T12:57:32.934Z,7.20
2023-03-08T12:59:59.855Z,7.00
2023-03-08T13:02:30.713Z,7.20
2023-03-08T13:05:15.639Z,7.30
2023-03-08T13:07:50.991Z,7.30
2023-03-08T13:10:24.486Z,7.40
2023-03-08T13:13:36.761Z,7.40
2023-03-08T13:16:21.405Z,7.10
2023-03-08T13:18:47.958Z,7.00
2023-03-08T13:21:27.826Z,7.10
2023-03-08T13:23:57.540Z,7.10
2023-03-08T13:26:50.238Z,7.20
2023-03-08T13:29:17.515Z,7.00
2023-03-08T13:31:42.084Z,7.00
2023-03-08T13:34:05.705Z,6.90
2023-03-08T13:36:31.497Z,6.80
2023-03-08T13:39:04.321Z,6.90
2023-03-08T13:41:41.406Z,6.70
2023-03-08T13:44:06.749Z,6.70
2023-03-08T13:46:31.140Z,6.70
2023-03-08T13:48:54.914Z,6.50
2023-03-08T13:51:19.298Z,6.40
2023-03-08T13:53:45.061Z,6.20
2023-03-08T13:56:09.733Z,6.10
2023-03-08T13:58:38.066Z,6.20
2023-03-08T14:01:04.518Z,6.30
2023-03-08T14:03:31.316Z,6.40
2023-03-08T14:05:54.964Z,6.30
2023-03-08T14:08:24.387Z,6.30
2023-03-08T14:10:50.693Z,6.30
2023-03-08T14:13:21.042Z,6.20
2023-03-08T14:15:51.694Z,6.20
2023-03-08T14:18:23.816Z,6.10
2023-03-08T14:20:47.666Z,5.90
2023-03-08T14:23:24.853Z,6.00
2023-03-08T14:25:58.351Z,6.00
2023-03-08T14:28:43.068Z,5.80
2023-03-08T14:31:30.098Z,5.90
2023-03-08T14:34:02.365Z,5.50
2023-03-08T14:36:26.497Z,5.40
2023-03-08T14:38:51.469Z,5.40
2023-03-08T14:41:16.010Z,5.50
2023-03-08T14:43:40.011Z,5.70
2023-03-08T14:46:06.918Z,5.50
2023-03-08T14:48:33.733Z,5.50
2023-03-08T14:51:00.325Z,5.30
2023-03-08T14:53:34.519Z,5.10
2023-03-08T14:55:58.986Z,4.90
2023-03-08T14:58:27.776Z,4.80
2023-03-08T15:00:52.082Z,4.90
2023-03-08T15:03:15.621Z,5.10
2023-03-08T15:05:40.924Z,4.80
2023-03-08T15:08:04.559Z,5.00
2023-03-08T15:10:33.245Z,5.00
2023-03-08T15:12:57.336Z,4.90
2023-03-08T15:15:21.199Z,4.80
2023-03-08T15:17:44.991Z,4.80
2023-03-08T15:20:11.011Z,4.80
2023-03-08T15:22:41.488Z,5.00
2023-03-08T15:25:13.441Z,5.10
2023-03-08T15:27:37.031Z,5.00
2023-03-08T15:30:00.553Z,5.00
2023-03-08T15:32:24.162Z,4.90
2023-03-08T15:34:47.824Z,4.90
2023-03-08T15:37:15.642Z,4.90
2023-03-08T15:39:40.562Z,4.70
2023-03-08T15:42:04.255Z,4.50
2023-03-08T15:44:27.853Z,4.50
2023-03-08T15:46:52.851Z,4.40
2023-03-08T15:49:16.620Z,4.30
2023-03-08T15:51:40.383Z,4.30
2023-03-08T15:54:04.873Z,4.40
2023-03-08T15:56:29.845Z,4.40
2023-03-08T15:58:53.503Z,4.40
2023-03-08T16:01:17.094Z,4.40
2023-03-08T16:03:40.896Z,4.50
2023-03-08T16:06:10.138Z,4.50
2023-03-08T16:08:35.181Z,4.40
2023-03-08T16:11:03.846Z,4.40
2023-03-08T16:13:28.920Z,4.40
2023-03-08T16:15:52.553Z,4.40
2023-03-08T16:18:16.120Z,4.40
2023-03-08T16:20:41.592Z,4.30
2023-03-08T16:23:05.113Z,4.30
2023-03-08T16:25:28.900Z,4.20
2023-03-08T16:27:53.162Z,4.10
2023-03-08T16:30:18.520Z,4.00
2023-03-08T16:32:42.297Z,4.00
2023-03-08T16:35:06.975Z,4.00
2023-03-08T16:37:30.602Z,3.90
2023-03-08T16:39:57.493Z,3.90
2023-03-08T16:42:22.033Z,3.80
2023-03-08T16:44:52.012Z,3.80
2023-03-08T16:47:17.144Z,3.70
2023-03-08T16:49:40.732Z,3.70
2023-03-08T16:52:05.550Z,3.60
2023-03-08T16:54:29.184Z,3.50
2023-03-08T16:56:52.729Z,3.60
2023-03-08T16:59:17.498Z,3.60
2023-03-08T17:01:42.376Z,3.50
2023-03-08T17:04:07.513Z,3.50
2023-03-08T17:06:33.384Z,3.50
2023-03-08T17:08:57.952Z,3.50
2023-03-08T17:11:23.670Z,3.50
2023-03-08T17:13:51.143Z,3.50
2023-03-08T17:16:14.934Z,3.50
2023-03-08T17:18:38.483Z,3.40
2023-03-08T17:21:03.406Z,3.40
2023-03-08T17:23:26.957Z,3.40
2023-03-08T17:25:51.636Z,3.50
2023-03-08T17:28:15.912Z,3.50
2023-03-08T17:30:41.373Z,3.40
2023-03-08T17:33:05.087Z,3.40
2023-03-08T17:35:28.955Z,3.40
2023-03-08T17:37:54.216Z,3.40
2023-03-08T17:40:18.598Z,3.40
2023-03-08T17:42:42.306Z,3.40
2023-03-08T17:45:07.450Z,3.40
2023-03-08T17:47:30.995Z,3.40
2023-03-08T17:49:54.569Z,3.40
2023-03-08T17:52:18.183Z,3.40
2023-03-08T17:54:43.185Z,3.40
2023-03-08T17:57:06.846Z,3.40
2023-03-08T17:59:30.445Z,3.40
2023-03-08T18:01:53.996Z,3.30
2023-03-08T18:04:19.027Z,3.40
2023-03-08T18:06:44.139Z,3.30
2023-03-08T18:09:10.756Z,3.30
2023-03-08T18:11:37.728Z,3.10
2023-03-08T18:14:01.418Z,3.20
2023-03-08T18:16:26.176Z,3.10
2023-03-08T18:18:50.849Z,3.20
2023-03-08T18:21:14.543Z,3.10
2023-03-08T18:23:38.090Z,3.10
2023-03-08T18:26:02.023Z,3.10
2023-03-08T18:28:27.067Z,3.10
2023-03-08T18:30:50.583Z,3.10
2023-03-08T18:33:14.229Z,3.00
2023-03-08T18:35:37.818Z,3.00
2023-03-08T18:38:02.281Z,3.00
2023-03-08T18:40:27.702Z,2.90
2023-03-08T18:42:51.342Z,2.90
2023-03-08T18:45:18.280Z,2.90
2023-03-08T18:47:42.247Z,2.90
2023-03-08T18:50:08.255Z,2.90
2023-03-08T18:52:32.083Z,2.90
2023-03-08T18:54:55.734Z,2.90
2023-03-08T18:57:19.284Z,2.80
2023-03-08T18:59:42.865Z,2.80
2023-03-08T19:02:11.135Z,2.80
2023-03-08T19:04:39.948Z,2.80
2023-03-08T19:07:03.536Z,2.80
2023-03-08T19:09:27.109Z,2.80
2023-03-08T19:11:50.653Z,2.80
2023-03-08T19:14:14.798Z,2.80
2023-03-08T19:16:38.453Z,2.80
2023-03-08T19:19:06.338Z,2.80
2023-03-08T19:21:32.200Z,2.80
2023-03-08T19:23:57.382Z,2.80
2023-03-08T19:26:41.216Z,2.80
2023-03-08T19:29:08.078Z,2.80
2023-03-08T19:31:31.919Z,2.70
2023-03-08T19:33:56.138Z,2.60
2023-03-08T19:36:21.387Z,2.60
2023-03-08T19:38:45.095Z,2.60
2023-03-08T19:41:10.536Z,2.60
2023-03-08T19:43:34.292Z,2.60
2023-03-08T19:46:00.370Z,2.60
2023-03-08T19:48:24.171Z,2.60
2023-03-08T19:50:48.111Z,2.60
2023-03-08T19:53:13.084Z,2.60
2023-03-08T19:55:36.626Z,2.60
2023-03-08T19:58:00.290Z,2.60
2023-03-08T20:00:24.533Z,2.50
2023-03-08T20:02:48.446Z,2.50
2023-03-08T20:05:12.136Z,2.60
2023-03-08T20:07:35.916Z,2.60
2023-03-08T20:10:15.187Z,2.60
2023-03-08T20:12:39.773Z,2.50
2023-03-08T20:15:03.481Z,2.50
2023-03-08T20:17:28.360Z,2.50
2023-03-08T20:19:52.149Z,2.50
2023-03-08T20:22:15.830Z,2.50
2023-03-08T20:24:39.513Z,2.50
2023-03-08T20:27:05.302Z,2.50
2023-03-08T20:29:28.863Z,2.50
2023-03-08T20:31:52.557Z,2.50
2023-03-08T20:34:16.271Z,2.50
2023-03-08T20:36:39.926Z,2.50
2023-03-08T20:39:03.566Z,2.50
2023-03-08T20:41:28.249Z,2.50
2023-03-08T20:43:55.984Z,2.50
2023-03-08T20:46:23.120Z,2.40
2023-03-08T20:48:47.684Z,2.40
2023-03-08T20:51:15.339Z,2.40
2023-03-08T20:53:39.855Z,2.40
2023-03-08T20:56:07.318Z,2.40
2023-03-08T20:58:31.052Z,2.50
2023-03-08T21:00:56.102Z,2.50
2023-03-08T21:03:19.745Z,2.50
2023-03-08T21:05:43.642Z,2.50
2023-03-08T21:08:07.942Z,2.40
2023-03-08T21:10:32.933Z,2.40
2023-03-08T21:12:56.546Z,2.40
2023-03-08T21:15:20.353Z,2.40
2023-03-08T21:17:45.231Z,2.40
2023-03-08T21:20:11.343Z,2.40
2023-03-08T21:22:34.838Z,2.40
2023-03-08T21:24:58.832Z,2.40
2023-03-08T21:27:22.368Z,2.40
2023-03-08T21:29:46.043Z,2.40
2023-03-08T21:32:09.714Z,2.30
2023-03-08T21:34:34.690Z,2.30
2023-03-08T21:36:58.343Z,2.30
2023-03-08T21:39:22.712Z,2.30
2023-03-08T21:41:50.537Z,2.30
2023-03-08T21:44:16.341Z,2.30
2023-03-08T21:46:41.563Z,2.40
2023-03-08T21:49:05.722Z,2.40
2023-03-08T21:51:30.737Z,2.40
2023-03-08T21:53:54.423Z,2.40
2023-03-08T21:56:19.703Z,2.40
2023-03-08T21:58:43.758Z,2.30
2023-03-08T22:01:08.592Z,2.30
2023-03-08T22:03:33.466Z,2.30
2023-03-08T22:05:57.080Z,2.40
2023-03-08T22:08:22.691Z,2.40
2023-03-08T22:10:46.204Z,2.40
2023-03-08T22:13:09.857Z,2.30
2023-03-08T22:15:33.377Z,2.40
2023-03-08T22:17:57.238Z,2.30
2023-03-08T22:20:21.516Z,2.30
2023-03-08T22:22:45.645Z,2.30
2023-03-08T22:25:11.555Z,2.30
2023-03-08T22:27:35.633Z,2.30
2023-03-08T22:29:59.688Z,2.30
2023-03-08T22:32:23.570Z,2.30
2023-03-08T22:34:47.213Z,2.30
2023-03-08T22:37:10.791Z,2.30
2023-03-08T22:39:34.366Z,2.30
2023-03-08T22:41:59.718Z,2.30
2023-03-08T22:44:23.343Z,2.30
2023-03-08T22:46:46.963Z,2.30
2023-03-08T22:49:12.593Z,2.30
2023-03-08T22:51:36.500Z,2.30
2023-03-08T22:54:03.942Z,2.30
2023-03-08T22:56:30.706Z,2.30
2023-03-08T22:58:56.000Z,2.30
2023-03-08T23:01:22.603Z,2.30
2023-03-08T23:03:49.229Z,2.20
2023-03-08T23:06:12.972Z,2.20
2023-03-08T23:08:36.547Z,2.30
2023-03-08T23:11:00.196Z,2.30
2023-03-08T23:13:33.487Z,2.30
2023-03-08T23:15:59.431Z,2.30
2023-03-08T23:18:22.988Z,2.30
2023-03-08T23:20:46.633Z,2.30
2023-03-08T23:23:10.174Z,2.30
2023-03-08T23:25:34.017Z,2.40
2023-03-08T23:27:57.611Z,2.30
2023-03-08T23:30:21.476Z,2.30
2023-03-08T23:32:46.466Z,2.30
2023-03-08T23:35:11.992Z,2.30
2023-03-08T23:37:35.538Z,2.30
2023-03-08T23:39:59.144Z,2.30
2023-03-08T23:42:22.677Z,2.30
2023-03-08T23:44:46.254Z,2.30
2023-03-08T23:47:09.951Z,2.30
2023-03-08T23:49:36.113Z,2.30
2023-03-08T23:51:59.831Z,2.30
2023-03-08T23:54:23.458Z,2.30
2023-03-08T23:56:47.056Z,2.30
2023-03-08T23:59:16.857Z,2.30
